Time;durP1;ratioP1;P1;durP2;ratioP2;P2;SDS_P1;SDS_P2;PMS_P1;PMS_P2;Temp;Humidity;BMP_temperature;BMP_pressure;BME280_temperature;BME280_humidity;BME280_pressure;Samples;Min_cycle;Max_cycle;Signal;HPM_P1;HPM_P2
2021/05/09 00:01:42;;;;;;;5.37;3.07;;;12.00;99.90;;;;;;5090606;28;20417;-68
2021/05/09 00:04:11;;;;;;;2.97;2.63;;;12.00;99.90;;;;;;5090559;28;20433;-67
2021/05/09 00:06:38;;;;;;;4.87;2.53;;;12.00;99.90;;;;;;5072832;28;20420;-66
2021/05/09 00:09:06;;;;;;;4.63;3.40;;;12.00;99.90;;;;;;5090647;28;20742;-67
2021/05/09 00:11:33;;;;;;;5.57;3.57;;;12.00;99.90;;;;;;5090438;28;20814;-67
2021/05/09 00:14:01;;;;;;;5.57;4.80;;;11.90;99.90;;;;;;5090494;28;20419;-66
2021/05/09 00:16:29;;;;;;;5.07;2.80;;;11.90;99.90;;;;;;5090284;28;20407;-68
2021/05/09 00:18:56;;;;;;;3.80;3.40;;;11.90;99.90;;;;;;5090675;28;20960;-67
2021/05/09 00:21:24;;;;;;;3.37;3.07;;;11.90;99.90;;;;;;5090106;28;20420;-67
2021/05/09 00:23:52;;;;;;;3.23;2.93;;;12.00;99.90;;;;;;5090315;28;20436;-68
2021/05/09 00:26:19;;;;;;;3.20;2.90;;;12.00;99.90;;;;;;5091600;28;20425;-67
2021/05/09 00:28:46;;;;;;;2.63;2.43;;;12.10;99.90;;;;;;5094680;28;20405;-67
2021/05/09 00:31:13;;;;;;;4.70;3.53;;;12.00;99.90;;;;;;5095143;28;20402;-66
2021/05/09 00:33:40;;;;;;;3.30;3.00;;;12.10;99.90;;;;;;5095481;28;20446;-68
2021/05/09 00:36:08;;;;;;;3.90;2.97;;;12.10;99.90;;;;;;5095510;28;20418;-65
2021/05/09 00:38:36;;;;;;;5.17;3.90;;;12.10;99.90;;;;;;5094968;28;20405;-67
2021/05/09 00:41:03;;;;;;;3.73;3.17;;;12.10;99.90;;;;;;5094951;28;20424;-68
2021/05/09 00:43:30;;;;;;;3.83;3.33;;;12.10;99.90;;;;;;5094518;28;20437;-67
2021/05/09 00:45:57;;;;;;;2.90;2.60;;;12.10;99.90;;;;;;5094664;28;20422;-66
2021/05/09 00:48:25;;;;;;;3.93;3.27;;;12.10;99.90;;;;;;5076369;28;20437;-68
2021/05/09 00:50:52;;;;;;;5.60;2.80;;;12.10;99.90;;;;;;5094390;28;20455;-69
2021/05/09 00:53:23;;;;;;;6.70;3.33;;;12.00;99.90;;;;;;5093835;28;20465;-67
2021/05/09 00:55:52;;;;;;;3.10;2.90;;;12.00;99.90;;;;;;5094246;28;20417;-68
2021/05/09 00:58:26;;;;;;;3.03;2.73;;;12.00;99.90;;;;;;5076657;28;20392;-68
2021/05/09 01:00:54;;;;;;;3.00;2.80;;;12.00;99.90;;;;;;5078821;28;20498;-71
2021/05/09 01:03:27;;;;;;;3.50;2.70;;;12.00;99.90;;;;;;5093827;28;20482;-71
2021/05/09 01:05:56;;;;;;;3.37;2.90;;;12.10;99.90;;;;;;5093864;28;20791;-73
2021/05/09 01:08:27;;;;;;;3.80;3.37;;;12.10;99.90;;;;;;5093884;28;20377;-72
2021/05/09 01:10:56;;;;;;;3.60;2.30;;;12.10;99.90;;;;;;5094085;28;20406;-73
2021/05/09 01:13:23;;;;;;;3.87;3.50;;;12.20;99.90;;;;;;5075511;28;20486;-72
2021/05/09 01:15:51;;;;;;;4.33;3.20;;;12.10;99.90;;;;;;5093964;28;20894;-73
2021/05/09 01:18:18;;;;;;;5.00;3.23;;;12.10;99.90;;;;;;5093637;28;20432;-72
2021/05/09 01:20:47;;;;;;;5.40;3.13;;;12.20;99.90;;;;;;5093432;28;20466;-71
2021/05/09 01:23:15;;;;;;;4.10;3.40;;;12.20;99.90;;;;;;5075072;28;20510;-71
2021/05/09 01:25:42;;;;;;;5.00;2.40;;;12.30;99.90;;;;;;5075442;28;20434;-70
2021/05/09 01:28:10;;;;;;;2.60;2.40;;;12.30;99.90;;;;;;5093507;28;20462;-71
2021/05/09 01:30:38;;;;;;;3.90;3.13;;;12.20;99.90;;;;;;5093287;28;20937;-71
2021/05/09 01:33:06;;;;;;;3.57;3.27;;;12.20;99.90;;;;;;5093223;28;20465;-70
2021/05/09 01:35:34;;;;;;;4.60;3.00;;;12.20;99.90;;;;;;5093431;28;21063;-70
2021/05/09 01:38:04;;;;;;;4.00;3.70;;;12.10;99.90;;;;;;5092511;28;20383;-71
2021/05/09 01:40:31;;;;;;;2.77;2.33;;;12.20;99.90;;;;;;5093496;28;20437;-71
2021/05/09 01:42:59;;;;;;;3.87;3.40;;;12.20;99.90;;;;;;5075949;28;20439;-71
2021/05/09 01:45:27;;;;;;;4.07;2.63;;;12.20;99.90;;;;;;5093143;28;20396;-71
2021/05/09 01:47:54;;;;;;;3.70;2.70;;;12.20;99.90;;;;;;5093071;28;20406;-71
2021/05/09 01:50:22;;;;;;;3.27;3.00;;;12.20;99.90;;;;;;5092990;28;20474;-71
2021/05/09 01:52:49;;;;;;;3.07;2.80;;;12.20;99.90;;;;;;5092509;28;20835;-71
2021/05/09 01:55:23;;;;;;;3.80;2.33;;;12.20;99.90;;;;;;5092973;28;20828;-71
2021/05/09 01:58:04;;;;;;;2.60;2.40;;;12.10;99.90;;;;;;5074759;28;20415;-71
2021/05/09 02:00:43;;;;;;;6.60;2.87;;;12.10;99.90;;;;;;5092571;28;20514;-71
2021/05/09 02:03:19;;;;;;;2.77;2.40;;;12.10;99.90;;;;;;5092577;28;20942;-71
2021/05/09 02:05:46;;;;;;;3.27;2.80;;;12.10;99.90;;;;;;5092639;28;20409;-69
2021/05/09 02:08:15;;;;;;;3.97;3.57;;;12.10;99.90;;;;;;5074652;28;20396;-71
2021/05/09 02:10:48;;;;;;;2.80;2.40;;;12.10;99.90;;;;;;5093059;28;20397;-70
2021/05/09 02:13:16;;;;;;;2.80;2.60;;;12.10;99.90;;;;;;5074373;28;20981;-70
2021/05/09 02:15:53;;;;;;;4.73;2.77;;;12.00;99.90;;;;;;5074546;28;20419;-71
2021/05/09 02:18:20;;;;;;;3.50;3.20;;;12.10;99.90;;;;;;5074992;28;20555;-70
2021/05/09 02:20:49;;;;;;;2.50;2.30;;;12.10;99.90;;;;;;5074304;28;20399;-72
2021/05/09 02:23:17;;;;;;;2.40;2.20;;;12.10;99.90;;;;;;5073982;28;20482;-70
2021/05/09 02:25:44;;;;;;;2.80;2.60;;;12.20;99.90;;;;;;5092747;28;20425;-70
2021/05/09 02:28:14;;;;;;;5.17;2.90;;;12.10;99.90;;;;;;5074271;28;20975;-71
2021/05/09 02:30:43;;;;;;;3.10;2.67;;;12.10;99.90;;;;;;5074172;28;20404;-71
2021/05/09 02:33:12;;;;;;;2.33;1.90;;;12.10;99.90;;;;;;5092021;28;20482;-71
2021/05/09 02:35:42;;;;;;;3.13;2.40;;;12.00;99.90;;;;;;5092222;28;20915;-70
2021/05/09 02:38:10;;;;;;;2.97;2.33;;;12.10;99.90;;;;;;5074433;28;20976;-71
2021/05/09 02:40:37;;;;;;;3.20;2.83;;;12.10;99.90;;;;;;5092157;28;20409;-71
2021/05/09 02:43:07;;;;;;;3.03;2.73;;;12.00;99.90;;;;;;5073867;28;20424;-71
2021/05/09 02:45:36;;;;;;;4.23;2.87;;;12.00;99.90;;;;;;5092113;28;20372;-72
2021/05/09 02:48:04;;;;;;;3.80;3.33;;;12.10;99.90;;;;;;5091879;28;20396;-71
2021/05/09 02:50:33;;;;;;;4.00;3.43;;;12.00;99.90;;;;;;5073313;28;20408;-70
2021/05/09 02:53:00;;;;;;;4.27;2.70;;;12.00;99.90;;;;;;5091432;28;20947;-70
2021/05/09 02:55:28;;;;;;;2.63;2.00;;;11.90;99.90;;;;;;5073606;28;20904;-71
2021/05/09 02:57:55;;;;;;;3.40;2.60;;;12.00;99.90;;;;;;5073211;28;20495;-71
2021/05/09 03:00:23;;;;;;;3.10;2.77;;;11.90;99.90;;;;;;5073657;28;20503;-71
2021/05/09 03:03:08;;;;;;;4.00;3.20;;;11.90;99.90;;;;;;5073096;28;20446;-71
2021/05/09 03:05:36;;;;;;;3.70;2.53;;;12.00;99.90;;;;;;5091640;28;20387;-71
2021/05/09 03:08:04;;;;;;;3.03;2.50;;;11.90;99.90;;;;;;5073501;28;20440;-71
2021/05/09 03:10:33;;;;;;;4.30;2.70;;;11.90;99.90;;;;;;5074091;28;21225;-71
2021/05/09 03:13:01;;;;;;;2.60;2.30;;;11.90;99.90;;;;;;5073458;28;20479;-71
2021/05/09 03:15:29;;;;;;;4.77;3.00;;;11.90;99.90;;;;;;5092567;28;20384;-71
2021/05/09 03:17:56;;;;;;;3.80;2.90;;;11.90;99.90;;;;;;5092218;28;20757;-71
2021/05/09 03:20:24;;;;;;;4.43;3.63;;;11.90;99.90;;;;;;5073779;28;20516;-70
2021/05/09 03:22:52;;;;;;;2.53;2.30;;;11.80;99.90;;;;;;5090690;28;20480;-71
2021/05/09 03:25:19;;;;;;;3.93;3.63;;;11.80;99.90;;;;;;5091282;28;20399;-71
2021/05/09 03:27:46;;;;;;;4.90;3.33;;;11.70;99.90;;;;;;5090755;28;20376;-72
2021/05/09 03:30:14;;;;;;;3.03;2.70;;;11.60;99.90;;;;;;5091233;28;20861;-70
2021/05/09 03:32:42;;;;;;;2.70;2.50;;;11.50;99.90;;;;;;5072372;28;20469;-71
2021/05/09 03:35:10;;;;;;;4.50;2.60;;;11.40;99.90;;;;;;5090977;28;20871;-70
2021/05/09 03:37:39;;;;;;;2.83;2.57;;;11.40;99.90;;;;;;5090934;28;20906;-71
2021/05/09 03:40:08;;;;;;;3.23;2.80;;;11.30;99.90;;;;;;5090999;28;20396;-70
2021/05/09 03:42:35;;;;;;;4.03;3.20;;;11.20;99.90;;;;;;5090448;28;20784;-70
2021/05/09 03:45:03;;;;;;;2.53;2.28;;;11.20;99.90;;;;;;5072350;28;20404;-70
2021/05/09 03:47:30;;;;;;;7.28;2.60;;;11.30;99.90;;;;;;5090538;28;20526;-70
2021/05/09 03:49:58;;;;;;;2.83;2.63;;;11.20;99.90;;;;;;5090600;28;20201;-70
2021/05/09 03:52:26;;;;;;;3.30;3.00;;;11.30;99.90;;;;;;5091142;28;20992;-70
2021/05/09 03:54:55;;;;;;;2.78;2.55;;;11.30;99.90;;;;;;5090587;28;20388;-71
2021/05/09 03:57:22;;;;;;;3.25;2.38;;;11.30;99.90;;;;;;5090779;28;20168;-70
2021/05/09 03:59:51;;;;;;;3.78;2.92;;;11.40;99.90;;;;;;5072340;28;20191;-70
2021/05/09 04:02:19;;;;;;;3.03;2.43;;;11.50;99.90;;;;;;5071457;28;20308;-71
2021/05/09 04:04:46;;;;;;;2.97;2.50;;;11.70;99.90;;;;;;5090471;28;20449;-69
2021/05/09 04:07:13;;;;;;;5.37;3.53;;;12.40;99.90;;;;;;5090372;28;20884;-70
2021/05/09 04:09:40;;;;;;;2.87;2.50;;;13.70;99.90;;;;;;5090720;28;20507;-70
2021/05/09 04:12:09;;;;;;;4.00;3.23;;;15.40;99.90;;;;;;5090264;28;20435;-71
2021/05/09 04:14:37;;;;;;;2.40;2.20;;;17.20;99.90;;;;;;5090360;28;20399;-69
2021/05/09 04:17:04;;;;;;;3.57;2.60;;;18.50;99.90;;;;;;5090135;28;20406;-71
2021/05/09 04:19:35;;;;;;;4.13;3.30;;;19.00;99.90;;;;;;5090639;28;20411;-70
2021/05/09 04:22:02;;;;;;;2.63;2.43;;;19.40;99.90;;;;;;5090212;28;20419;-71
2021/05/09 04:24:29;;;;;;;2.57;2.30;;;20.00;99.90;;;;;;5072251;28;20403;-71
2021/05/09 04:26:56;;;;;;;4.27;2.87;;;21.00;99.90;;;;;;5090493;28;20405;-71
2021/05/09 04:29:24;;;;;;;3.40;2.53;;;21.40;99.90;;;;;;5090456;28;20389;-71
2021/05/09 04:31:52;;;;;;;3.77;2.90;;;20.90;99.90;;;;;;5090089;28;20449;-71
2021/05/09 04:34:19;;;;;;;3.23;2.90;;;19.70;99.90;;;;;;5090542;28;20449;-71
2021/05/09 04:36:46;;;;;;;4.87;2.70;;;18.40;99.90;;;;;;5090380;28;20414;-71
2021/05/09 04:39:14;;;;;;;3.57;3.17;;;17.40;99.90;;;;;;5090281;28;20474;-71
2021/05/09 04:41:41;;;;;;;3.20;2.60;;;17.00;99.90;;;;;;5089953;28;20488;-71
2021/05/09 04:44:08;;;;;;;5.30;2.60;;;16.50;99.90;;;;;;5089894;28;20417;-71
2021/05/09 04:46:36;;;;;;;3.97;2.90;;;16.50;99.90;;;;;;5090070;28;20968;-71
2021/05/09 04:49:04;;;;;;;3.10;2.60;;;17.40;99.90;;;;;;5090242;28;20398;-71
2021/05/09 04:51:32;;;;;;;3.50;3.20;;;19.20;99.90;;;;;;5090016;28;20863;-71
2021/05/09 04:54:00;;;;;;;3.30;3.00;;;21.10;99.90;;;;;;5089981;28;20480;-71
2021/05/09 04:56:27;;;;;;;3.43;3.13;;;22.50;99.90;;;;;;5071900;28;20429;-70
2021/05/09 04:58:56;;;;;;;2.50;2.27;;;23.00;99.90;;;;;;5089633;28;20438;-70
2021/05/09 05:01:23;;;;;;;3.23;2.77;;;24.00;99.90;;;;;;5089497;28;20743;-70
2021/05/09 05:03:51;;;;;;;3.93;2.87;;;24.80;99.90;;;;;;5089704;28;20392;-70
2021/05/09 05:06:19;;;;;;;2.67;2.40;;;25.00;99.90;;;;;;5089751;28;20419;-70
2021/05/09 05:08:46;;;;;;;3.10;2.80;;;23.80;99.90;;;;;;5089814;28;20979;-72
2021/05/09 05:11:14;;;;;;;3.70;3.00;;;23.40;99.90;;;;;;5071279;28;20464;-71
2021/05/09 05:13:41;;;;;;;4.37;3.00;;;24.00;99.90;;;;;;5092325;28;20548;-71
2021/05/09 05:16:08;;;;;;;5.40;2.97;;;23.00;99.90;;;;;;5093254;28;20425;-70
2021/05/09 05:18:36;;;;;;;4.27;3.60;;;23.30;99.90;;;;;;5093218;28;20432;-71
2021/05/09 05:21:06;;;;;;;3.33;2.83;;;23.50;99.90;;;;;;5074826;28;20408;-70
2021/05/09 05:23:35;;;;;;;3.00;2.80;;;22.40;99.90;;;;;;5093730;28;20451;-71
2021/05/09 05:26:04;;;;;;;4.07;3.00;;;20.40;99.90;;;;;;5075136;28;20453;-71
2021/05/09 05:28:31;;;;;;;3.10;2.33;;;18.80;99.90;;;;;;5092976;28;20788;-72
2021/05/09 05:30:58;;;;;;;3.33;2.40;;;17.50;99.90;;;;;;5092820;28;20383;-71
2021/05/09 05:33:28;;;;;;;4.63;3.13;;;16.80;99.90;;;;;;5092535;28;20674;-71
2021/05/09 05:35:56;;;;;;;3.07;2.87;;;16.20;99.90;;;;;;5092601;28;20453;-71
2021/05/09 05:38:24;;;;;;;3.10;2.40;;;15.90;99.90;;;;;;5092912;28;20400;-71
2021/05/09 05:40:54;;;;;;;3.00;2.07;;;15.80;99.90;;;;;;5079489;28;20401;-71
2021/05/09 05:43:22;;;;;;;3.43;2.33;;;15.60;99.90;;;;;;5054208;28;20420;-71
2021/05/09 05:45:51;;;;;;;3.87;3.57;;;15.90;99.90;;;;;;5072573;28;20449;-71
2021/05/09 05:48:18;;;;;;;2.37;2.17;;;16.30;99.90;;;;;;5054596;28;20428;-71
2021/05/09 05:50:45;;;;;;;3.30;3.00;;;16.50;99.90;;;;;;5072706;28;20945;-71
2021/05/09 05:53:16;;;;;;;4.10;2.57;;;16.70;99.90;;;;;;5072046;28;20512;-71
2021/05/09 05:55:45;;;;;;;3.13;2.83;;;16.90;99.90;;;;;;5072246;28;20407;-71
2021/05/09 05:58:12;;;;;;;2.40;2.20;;;16.60;99.90;;;;;;5071932;28;20405;-71
2021/05/09 06:00:40;;;;;;;3.20;2.20;;;16.60;99.90;;;;;;5071783;28;20434;-71
2021/05/09 06:03:07;;;;;;;2.67;2.47;;;16.60;99.90;;;;;;5071505;28;20939;-71
2021/05/09 06:05:35;;;;;;;2.57;2.37;;;16.40;99.90;;;;;;5071840;28;20800;-70
2021/05/09 06:08:03;;;;;;;7.57;5.10;;;16.40;99.90;;;;;;5072100;28;20776;-71
2021/05/09 06:10:30;;;;;;;2.90;2.47;;;16.50;99.90;;;;;;5055144;28;20401;-71
2021/05/09 06:12:58;;;;;;;5.53;2.70;;;16.50;99.90;;;;;;5072487;28;20447;-71
2021/05/09 06:15:25;;;;;;;4.43;2.00;;;16.40;99.90;;;;;;5072712;28;20839;-71
2021/05/09 06:17:53;;;;;;;2.60;2.20;;;16.50;99.90;;;;;;5072586;28;20414;-71
2021/05/09 06:20:20;;;;;;;2.00;1.90;;;16.60;99.90;;;;;;5071845;28;20421;-71
2021/05/09 06:22:47;;;;;;;4.07;2.53;;;16.60;99.90;;;;;;5072117;28;20456;-71
2021/05/09 06:25:15;;;;;;;2.80;2.30;;;16.50;99.90;;;;;;5071329;28;20418;-72
2021/05/09 06:27:42;;;;;;;2.10;1.90;;;16.30;99.90;;;;;;5072144;28;20822;-73
2021/05/09 06:30:11;;;;;;;3.20;2.60;;;16.10;99.90;;;;;;5072732;28;20381;-70
2021/05/09 06:32:38;;;;;;;6.73;3.00;;;16.10;99.90;;;;;;5070936;28;20473;-72
2021/05/09 06:35:06;;;;;;;2.13;1.70;;;16.10;99.90;;;;;;5073422;28;20393;-70
2021/05/09 06:37:34;;;;;;;2.40;2.20;;;16.00;99.90;;;;;;5073904;28;20438;-71
2021/05/09 06:40:01;;;;;;;2.30;2.03;;;15.90;99.90;;;;;;5071822;28;20430;-71
2021/05/09 06:42:29;;;;;;;2.50;2.17;;;15.90;99.90;;;;;;5073068;28;20469;-71
2021/05/09 06:45:00;;;;;;;2.63;1.90;;;16.00;99.90;;;;;;5073303;28;20413;-71
2021/05/09 06:47:28;;;;;;;2.70;1.70;;;16.30;99.90;;;;;;5073879;28;20847;-72
2021/05/09 06:49:55;;;;;;;3.03;2.67;;;16.20;99.90;;;;;;5071537;28;20427;-71
2021/05/09 06:52:22;;;;;;;2.43;1.83;;;16.20;99.90;;;;;;5072415;28;20444;-71
2021/05/09 06:54:51;;;;;;;2.23;1.87;;;16.20;99.90;;;;;;5072662;28;20512;-71
2021/05/09 06:57:18;;;;;;;3.13;2.60;;;16.30;99.90;;;;;;5071933;28;20412;-71
2021/05/09 06:59:45;;;;;;;5.97;1.90;;;16.40;99.90;;;;;;5091577;22;20579;-66
2021/05/09 07:02:12;;;;;;;3.13;2.10;;;16.60;99.90;;;;;;5099679;28;20407;-68
2021/05/09 07:04:40;;;;;;;2.43;2.10;;;16.80;99.90;;;;;;5114878;28;20444;-68
2021/05/09 07:07:08;;;;;;;2.60;2.00;;;17.10;99.90;;;;;;5114511;28;20486;-67
2021/05/09 07:09:35;;;;;;;2.63;2.30;;;17.30;99.90;;;;;;5114442;28;20486;-68
2021/05/09 07:12:07;;;;;;;2.70;1.80;;;17.70;99.90;;;;;;5113064;28;20418;-69
2021/05/09 07:14:34;;;;;;;2.90;1.70;;;17.90;99.90;;;;;;5113269;28;20398;-69
2021/05/09 07:17:02;;;;;;;2.30;2.10;;;18.20;99.90;;;;;;5114369;28;20924;-69
2021/05/09 07:19:29;;;;;;;1.93;1.73;;;18.60;99.90;;;;;;5114383;28;20455;-66
2021/05/09 07:22:00;;;;;;;2.07;1.80;;;18.80;99.90;;;;;;5114480;28;20509;-68
2021/05/09 07:24:27;;;;;;;2.57;2.37;;;18.80;99.90;;;;;;5092228;28;20501;-68
2021/05/09 07:26:55;;;;;;;1.93;1.57;;;18.70;99.90;;;;;;5086421;28;20421;-68
2021/05/09 07:29:22;;;;;;;1.97;1.77;;;18.80;99.90;;;;;;5078816;28;20836;-68
2021/05/09 07:31:49;;;;;;;2.00;1.70;;;19.20;99.90;;;;;;5077209;28;20471;-68
2021/05/09 07:34:16;;;;;;;1.97;1.60;;;19.40;99.90;;;;;;5091176;28;20497;-68
2021/05/09 07:36:43;;;;;;;2.67;1.83;;;19.60;99.90;;;;;;5090161;28;20422;-68
2021/05/09 07:39:11;;;;;;;3.80;2.27;;;19.60;99.90;;;;;;5090978;28;20996;-67
2021/05/09 07:41:38;;;;;;;2.60;2.00;;;19.90;99.90;;;;;;5090614;28;20897;-68
2021/05/09 07:44:06;;;;;;;3.10;2.10;;;20.00;99.90;;;;;;5090300;28;20441;-69
2021/05/09 07:46:34;;;;;;;1.60;1.50;;;20.00;99.90;;;;;;5090583;28;20404;-68
2021/05/09 07:49:01;;;;;;;2.13;1.83;;;20.00;99.90;;;;;;5090565;28;20421;-67
2021/05/09 07:51:28;;;;;;;1.50;1.30;;;20.00;99.90;;;;;;5090653;28;20440;-69
2021/05/09 07:53:55;;;;;;;1.50;1.40;;;19.70;99.90;;;;;;5090765;28;20465;-69
2021/05/09 07:56:23;;;;;;;2.03;1.50;;;19.70;99.90;;;;;;5090815;28;20421;-68
2021/05/09 07:58:51;;;;;;;1.97;1.50;;;19.90;99.90;;;;;;5090658;28;20425;-69
2021/05/09 08:01:18;;;;;;;1.60;1.50;;;20.00;99.90;;;;;;5090369;28;20779;-68
2021/05/09 08:03:45;;;;;;;2.20;1.40;;;19.80;99.90;;;;;;5090601;28;21033;-69
2021/05/09 08:06:12;;;;;;;2.20;1.40;;;19.80;99.90;;;;;;5090530;28;20482;-68
2021/05/09 08:08:40;;;;;;;1.60;1.20;;;19.90;99.90;;;;;;5090460;28;20460;-68
2021/05/09 08:11:07;;;;;;;2.50;1.80;;;19.80;99.90;;;;;;5090930;28;20987;-67
2021/05/09 08:13:35;;;;;;;1.70;1.43;;;19.80;99.90;;;;;;5090149;28;20468;-69
2021/05/09 08:16:04;;;;;;;1.83;1.30;;;20.00;99.90;;;;;;5090459;28;21073;-69
2021/05/09 08:18:32;;;;;;;2.03;1.33;;;20.20;99.90;;;;;;5090428;28;20432;-69
2021/05/09 08:21:01;;;;;;;1.90;1.80;;;20.30;99.90;;;;;;5072116;28;20428;-68
2021/05/09 08:23:30;;;;;;;1.93;1.47;;;20.30;99.90;;;;;;5089967;28;20534;-67
2021/05/09 08:26:00;;;;;;;7.53;1.57;;;20.40;99.90;;;;;;5089960;28;20424;-68
2021/05/09 08:28:28;;;;;;;4.27;1.43;;;20.30;99.90;;;;;;5089818;28;20421;-67
2021/05/09 08:30:56;;;;;;;1.83;1.43;;;20.40;99.90;;;;;;5071221;28;20441;-68
2021/05/09 08:33:23;;;;;;;2.03;1.77;;;20.60;99.90;;;;;;5069742;28;20793;-69
2021/05/09 08:35:50;;;;;;;2.77;1.90;;;20.90;99.90;;;;;;5069784;28;20464;-67
2021/05/09 08:38:17;;;;;;;1.40;1.20;;;21.00;99.90;;;;;;5069794;28;20895;-66
2021/05/09 08:40:44;;;;;;;1.97;1.23;;;20.90;99.90;;;;;;5069380;28;20514;-68
2021/05/09 08:43:11;;;;;;;2.17;1.50;;;21.00;99.90;;;;;;5069067;28;20437;-66
2021/05/09 08:45:39;;;;;;;1.30;0.90;;;20.90;99.90;;;;;;5069714;28;20449;-67
2021/05/09 08:48:13;;;;;;;2.00;1.30;;;21.00;99.90;;;;;;5072063;28;20419;-70
2021/05/09 08:50:40;;;;;;;3.43;1.77;;;21.20;99.90;;;;;;5073895;28;20421;-69
2021/05/09 08:53:08;;;;;;;3.23;1.40;;;21.20;99.90;;;;;;5073407;28;20910;-67
2021/05/09 08:55:36;;;;;;;2.50;1.47;;;21.30;99.90;;;;;;5073697;28;20425;-70
2021/05/09 08:58:03;;;;;;;2.93;1.20;;;21.40;99.90;;;;;;5073994;28;20418;-68
2021/05/09 09:00:30;;;;;;;1.60;1.40;;;21.40;99.90;;;;;;5073560;28;20433;-68
2021/05/09 09:02:59;;;;;;;2.60;1.73;;;21.60;99.90;;;;;;5073420;28;20495;-68
2021/05/09 09:05:36;;;;;;;1.67;1.57;;;21.70;99.90;;;;;;5074029;28;20788;-68
2021/05/09 09:08:04;;;;;;;2.20;1.27;;;21.70;99.90;;;;;;5074982;28;20424;-69
2021/05/09 09:10:34;;;;;;;1.70;1.30;;;21.90;99.90;;;;;;5073640;28;20488;-68
2021/05/09 09:13:03;;;;;;;1.93;1.10;;;22.00;99.90;;;;;;5072912;28;20458;-67
2021/05/09 09:15:56;;;;;;;1.70;1.20;;;22.20;99.90;;;;;;5073236;28;20475;-68
2021/05/09 09:18:32;;;;;;;2.03;1.27;;;22.20;99.90;;;;;;5073531;28;20410;-67
2021/05/09 09:21:20;;;;;;;1.37;0.97;;;22.30;99.90;;;;;;5073091;28;20421;-68
2021/05/09 09:23:48;;;;;;;1.63;1.07;;;22.30;99.90;;;;;;5065467;28;20959;-67
2021/05/09 09:26:32;;;;;;;3.20;1.40;;;22.40;99.90;;;;;;5079093;28;20415;-67
2021/05/09 09:29:01;;;;;;;1.30;1.00;;;22.40;99.90;;;;;;5085779;28;20778;-67
2021/05/09 09:31:40;;;;;;;2.90;1.57;;;22.40;99.90;;;;;;5090379;28;20506;-69
2021/05/09 09:34:08;;;;;;;1.30;1.10;;;22.40;99.90;;;;;;5081239;28;20651;-69
2021/05/09 09:36:37;;;;;;;1.90;1.43;;;22.60;99.90;;;;;;5075608;28;20414;-69
2021/05/09 09:39:05;;;;;;;2.10;1.30;;;22.70;99.90;;;;;;5083823;28;20465;-71
2021/05/09 09:41:33;;;;;;;2.87;2.20;;;22.70;99.90;;;;;;5088486;28;20471;-72
2021/05/09 09:44:07;;;;;;;1.60;1.10;;;22.70;99.90;;;;;;5081276;28;20804;-69
2021/05/09 09:46:36;;;;;;;2.70;1.47;;;22.80;99.90;;;;;;5075705;28;20522;-67
2021/05/09 09:49:26;;;;;;;1.37;0.93;;;22.80;99.90;;;;;;5079168;28;20426;-68
2021/05/09 09:51:57;;;;;;;2.37;1.77;;;22.90;99.90;;;;;;5082549;28;20423;-68
2021/05/09 09:54:33;;;;;;;1.43;1.00;;;22.90;99.90;;;;;;5053446;28;20480;-68
2021/05/09 09:57:00;;;;;;;1.57;1.23;;;23.10;99.90;;;;;;5072225;28;20410;-67
2021/05/09 09:59:28;;;;;;;1.93;0.97;;;23.20;99.90;;;;;;5070415;28;20430;-70
2021/05/09 10:01:56;;;;;;;1.90;1.10;;;23.20;99.90;;;;;;5071061;28;20450;-71
2021/05/09 10:04:24;;;;;;;2.00;1.30;;;23.30;99.90;;;;;;5071351;28;20480;-70
2021/05/09 10:06:51;;;;;;;1.77;1.10;;;23.50;99.90;;;;;;5071606;28;20430;-68
2021/05/09 10:09:24;;;;;;;1.40;1.10;;;23.70;99.90;;;;;;5079315;28;20446;-69
2021/05/09 10:11:54;;;;;;;1.30;0.80;;;23.70;99.90;;;;;;5074289;28;20451;-69
2021/05/09 10:14:22;;;;;;;1.93;1.10;;;23.70;99.90;;;;;;5075217;28;21090;-70
2021/05/09 10:16:51;;;;;;;1.93;1.17;;;23.70;99.90;;;;;;5072102;28;20429;-70
2021/05/09 10:19:23;;;;;;;3.97;2.77;;;23.70;99.90;;;;;;5069956;28;20498;-70
2021/05/09 10:21:51;;;;;;;2.10;1.10;;;23.80;99.90;;;;;;5071422;28;20443;-69
2021/05/09 10:24:20;;;;;;;2.00;1.20;;;23.70;99.90;;;;;;5070786;28;20397;-68
2021/05/09 10:26:51;;;;;;;1.20;0.80;;;23.70;99.90;;;;;;5070121;28;20415;-68
2021/05/09 10:29:57;;;;;;;1.87;1.20;;;23.70;99.90;;;;;;5070489;28;20915;-69
2021/05/09 10:32:52;;;;;;;2.43;1.23;;;23.60;99.90;;;;;;5052930;28;20515;-68
2021/05/09 10:35:36;;;;;;;2.23;1.63;;;23.70;99.90;;;;;;5055337;28;20449;-69
2021/05/09 10:38:08;;;;;;;2.60;0.90;;;23.70;99.90;;;;;;5053624;28;20438;-70
2021/05/09 10:40:39;;;;;;;3.80;2.70;;;23.70;99.90;;;;;;5054795;28;20443;-69
2021/05/09 10:43:38;;;;;;;1.43;1.10;;;23.90;99.90;;;;;;5072027;28;20949;-69
2021/05/09 10:46:06;;;;;;;1.40;1.10;;;24.00;99.90;;;;;;5073652;28;20493;-69
2021/05/09 10:48:35;;;;;;;2.13;1.37;;;24.00;99.90;;;;;;5075355;28;20431;-71
2021/05/09 10:51:26;;;;;;;1.30;0.90;;;24.10;99.90;;;;;;5073754;28;20422;-70
2021/05/09 10:53:54;;;;;;;1.37;1.10;;;24.10;99.90;;;;;;5068081;28;20568;-69
2021/05/09 10:56:34;;;;;;;1.90;1.10;;;24.00;99.90;;;;;;5072991;28;20430;-70
2021/05/09 10:59:03;;;;;;;1.53;1.10;;;23.90;99.90;;;;;;5072831;28;20968;-70
2021/05/09 11:01:34;;;;;;;2.00;1.60;;;24.00;99.90;;;;;;5072017;28;20429;-69
2021/05/09 11:04:03;;;;;;;1.67;1.13;;;24.10;99.90;;;;;;5072697;28;20422;-69
2021/05/09 11:06:54;;;;;;;1.53;1.27;;;24.20;99.90;;;;;;5072202;28;20903;-70
2021/05/09 11:09:35;;;;;;;1.60;1.10;;;24.20;99.90;;;;;;5072311;28;20484;-68
2021/05/09 11:12:04;;;;;;;1.60;1.03;;;24.30;99.90;;;;;;5071749;28;20446;-69
2021/05/09 11:14:37;;;;;;;1.40;0.90;;;24.40;99.90;;;;;;5072071;28;20966;-69
2021/05/09 11:17:17;;;;;;;1.60;1.10;;;24.50;99.90;;;;;;5071891;28;20831;-69
2021/05/09 11:19:47;;;;;;;1.83;1.03;;;24.50;99.90;;;;;;5072273;28;20849;-70
2021/05/09 11:22:22;;;;;;;2.00;1.30;;;24.60;99.90;;;;;;5071579;28;20464;-68
2021/05/09 11:24:59;;;;;;;1.90;0.97;;;24.60;99.90;;;;;;5071745;28;20480;-69
2021/05/09 11:27:27;;;;;;;1.30;0.90;;;24.70;99.90;;;;;;5072085;28;20513;-69
2021/05/09 11:29:57;;;;;;;1.50;0.90;;;24.70;99.90;;;;;;5071881;28;20422;-69
2021/05/09 11:32:25;;;;;;;2.07;1.40;;;24.90;99.90;;;;;;5071341;28;20438;-70
2021/05/09 11:34:57;;;;;;;2.80;2.60;;;24.80;99.90;;;;;;5071394;28;21000;-68
2021/05/09 11:37:36;;;;;;;1.47;1.17;;;24.90;99.90;;;;;;5071811;28;20419;-69
2021/05/09 11:40:08;;;;;;;2.30;1.20;;;24.90;99.90;;;;;;5071659;28;20845;-70
2021/05/09 11:42:35;;;;;;;1.30;1.00;;;24.90;99.90;;;;;;5071199;28;20437;-69
2021/05/09 11:45:04;;;;;;;2.37;1.50;;;24.90;99.90;;;;;;5072033;28;20430;-70
2021/05/09 11:47:34;;;;;;;1.80;1.30;;;25.00;99.90;;;;;;5071813;28;20922;-70
2021/05/09 11:50:05;;;;;;;1.97;1.40;;;25.00;99.90;;;;;;5072120;28;20460;-69
2021/05/09 11:52:35;;;;;;;1.97;1.50;;;25.00;99.90;;;;;;5071606;28;20442;-69
2021/05/09 11:55:05;;;;;;;1.30;1.10;;;25.10;99.90;;;;;;5071817;28;20501;-69
2021/05/09 11:57:34;;;;;;;1.43;1.30;;;25.20;99.90;;;;;;5054161;28;20434;-68
2021/05/09 12:00:06;;;;;;;1.50;1.27;;;25.10;99.90;;;;;;5072301;28;20499;-69
2021/05/09 12:02:34;;;;;;;7.23;5.33;;;24.80;99.90;;;;;;5072556;28;20465;-68
2021/05/09 12:05:10;;;;;;;1.60;1.13;;;24.80;99.90;;;;;;5072325;28;20427;-69
2021/05/09 12:07:44;;;;;;;5.73;5.33;;;24.80;99.90;;;;;;5074125;28;20418;-70
2021/05/09 12:10:14;;;;;;;1.60;1.00;;;24.90;99.90;;;;;;5081193;28;20422;-69
2021/05/09 12:12:42;;;;;;;1.30;0.97;;;25.10;99.90;;;;;;5082148;28;20446;-69
2021/05/09 12:15:13;;;;;;;1.90;1.30;;;25.10;99.90;;;;;;5082044;28;20470;-69
2021/05/09 12:17:49;;;;;;;1.97;1.00;;;25.10;99.90;;;;;;5079928;28;20433;-70
2021/05/09 12:20:34;;;;;;;1.77;1.00;;;25.30;99.90;;;;;;5082839;28;20509;-71
2021/05/09 12:23:04;;;;;;;1.70;1.07;;;25.30;99.90;;;;;;5085098;28;20787;-68
2021/05/09 12:25:34;;;;;;;1.70;0.90;;;25.40;99.90;;;;;;5067710;28;20444;-70
2021/05/09 12:28:18;;;;;;;2.03;1.30;;;25.30;99.90;;;;;;5081657;28;20426;-70
2021/05/09 12:30:48;;;;;;;2.03;0.90;;;25.40;99.90;;;;;;5075878;28;20429;-69
2021/05/09 12:33:25;;;;;;;1.70;1.33;;;25.40;99.90;;;;;;5056948;28;20515;-69
2021/05/09 12:35:54;;;;;;;1.80;1.57;;;25.40;99.90;;;;;;5075146;28;20509;-69
2021/05/09 12:38:23;;;;;;;3.13;1.40;;;25.20;99.90;;;;;;5075216;28;20449;-70
2021/05/09 12:41:02;;;;;;;2.23;1.63;;;25.20;99.90;;;;;;5075323;28;20925;-69
2021/05/09 12:43:43;;;;;;;1.50;1.10;;;25.30;99.90;;;;;;5075145;28;20449;-68
2021/05/09 12:46:34;;;;;;;3.37;2.30;;;25.40;99.90;;;;;;5075398;28;20491;-71
2021/05/09 12:49:12;;;;;;;13.47;11.10;;;25.40;99.90;;;;;;5075371;28;20445;-69
2021/05/09 12:51:58;;;;;;;1.30;1.10;;;25.50;99.90;;;;;;5075920;28;20427;-69
2021/05/09 12:54:37;;;;;;;87.17;58.43;;;25.60;99.90;;;;;;5074875;28;20492;-69
2021/05/09 12:57:21;;;;;;;169.43;123.97;;;25.70;99.90;;;;;;5074627;28;20414;-71
2021/05/09 12:59:51;;;;;;;2.17;1.93;;;25.90;99.90;;;;;;5059462;22;20503;-70